sensor_id;sensor_type;location;lat;lon;timestamp;pressure;altitude;pressure_sealevel;temperature
15144;BMP180;7672;50.834;6.286;2022-08-19T00:02:03;99507.22;;;22.86
15144;BMP180;7672;50.834;6.286;2022-08-19T00:04:33;99521.06;;;22.83
15144;BMP180;7672;50.834;6.286;2022-08-19T00:07:07;99512.56;;;22.81
15144;BMP180;7672;50.834;6.286;2022-08-19T00:09:34;99509.38;;;22.76
15144;BMP180;7672;50.834;6.286;2022-08-19T00:12:01;99511.16;;;22.74
15144;BMP180;7672;50.834;6.286;2022-08-19T00:14:29;99508.66;;;22.73
15144;BMP180;7672;50.834;6.286;2022-08-19T00:16:58;99500.19;;;22.71
15144;BMP180;7672;50.834;6.286;2022-08-19T00:19:25;99500.31;;;22.68
15144;BMP180;7672;50.834;6.286;2022-08-19T00:21:53;99503.84;;;22.67
15144;BMP180;7672;50.834;6.286;2022-08-19T00:24:20;99498.81;;;22.64
15144;BMP180;7672;50.834;6.286;2022-08-19T00:26:47;99500.69;;;22.60
15144;BMP180;7672;50.834;6.286;2022-08-19T00:29:19;99500.91;;;22.56
15144;BMP180;7672;50.834;6.286;2022-08-19T00:31:46;99509.53;;;22.55
15144;BMP180;7672;50.834;6.286;2022-08-19T00:34:16;99502.06;;;22.50
15144;BMP180;7672;50.834;6.286;2022-08-19T00:36:44;99503.03;;;22.48
15144;BMP180;7672;50.834;6.286;2022-08-19T00:39:12;99502.25;;;22.46
15144;BMP180;7672;50.834;6.286;2022-08-19T00:41:40;99498.97;;;22.42
15144;BMP180;7672;50.834;6.286;2022-08-19T00:44:08;99506.78;;;22.41
15144;BMP180;7672;50.834;6.286;2022-08-19T00:46:40;99490.78;;;22.35
15144;BMP180;7672;50.834;6.286;2022-08-19T00:49:25;99485.91;;;22.29
15144;BMP180;7672;50.834;6.286;2022-08-19T00:52:11;99491.25;;;22.24
15144;BMP180;7672;50.834;6.286;2022-08-19T00:54:40;99492.38;;;22.19
15144;BMP180;7672;50.834;6.286;2022-08-19T00:57:11;99487.44;;;22.14
15144;BMP180;7672;50.834;6.286;2022-08-19T00:59:45;99496.19;;;22.10
15144;BMP180;7672;50.834;6.286;2022-08-19T01:02:29;99494.75;;;22.05
15144;BMP180;7672;50.834;6.286;2022-08-19T01:04:56;99504.25;;;22.03
15144;BMP180;7672;50.834;6.286;2022-08-19T01:07:23;99494.16;;;21.98
15144;BMP180;7672;50.834;6.286;2022-08-19T01:09:51;99495.13;;;21.96
15144;BMP180;7672;50.834;6.286;2022-08-19T01:12:18;99498.63;;;21.95
15144;BMP180;7672;50.834;6.286;2022-08-19T01:14:47;99500.34;;;21.94
15144;BMP180;7672;50.834;6.286;2022-08-19T01:17:16;99492.78;;;21.91
15144;BMP180;7672;50.834;6.286;2022-08-19T01:19:45;99496.25;;;21.90
15144;BMP180;7672;50.834;6.286;2022-08-19T01:22:35;99492.22;;;21.85
15144;BMP180;7672;50.834;6.286;2022-08-19T01:25:07;99494.88;;;21.83
15144;BMP180;7672;50.834;6.286;2022-08-19T01:27:45;99493.09;;;21.84
15144;BMP180;7672;50.834;6.286;2022-08-19T01:30:20;99484.56;;;21.83
15144;BMP180;7672;50.834;6.286;2022-08-19T01:32:49;99486.28;;;21.83
15144;BMP180;7672;50.834;6.286;2022-08-19T01:35:17;99484.56;;;21.83
15144;BMP180;7672;50.834;6.286;2022-08-19T01:37:57;99493.19;;;21.82
15144;BMP180;7672;50.834;6.286;2022-08-19T01:40:30;99492.34;;;21.82
15144;BMP180;7672;50.834;6.286;2022-08-19T01:42:57;99493.38;;;21.78
15144;BMP180;7672;50.834;6.286;2022-08-19T01:45:27;99498.41;;;21.81
15144;BMP180;7672;50.834;6.286;2022-08-19T01:47:55;99491.59;;;21.80
15144;BMP180;7672;50.834;6.286;2022-08-19T01:50:32;99489.09;;;21.78
15144;BMP180;7672;50.834;6.286;2022-08-19T01:53:02;99492.63;;;21.76
15144;BMP180;7672;50.834;6.286;2022-08-19T01:55:37;99483.22;;;21.75
15144;BMP180;7672;50.834;6.286;2022-08-19T01:58:15;99478.09;;;21.75
15144;BMP180;7672;50.834;6.286;2022-08-19T02:00:44;99478.16;;;21.74
15144;BMP180;7672;50.834;6.286;2022-08-19T02:03:12;99477.31;;;21.73
15144;BMP180;7672;50.834;6.286;2022-08-19T02:05:42;99479.75;;;21.76
15144;BMP180;7672;50.834;6.286;2022-08-19T02:08:11;99478.91;;;21.75
15144;BMP180;7672;50.834;6.286;2022-08-19T02:10:41;99482.25;;;21.77
15144;BMP180;7672;50.834;6.286;2022-08-19T02:13:11;99488.22;;;21.78
15144;BMP180;7672;50.834;6.286;2022-08-19T02:15:38;99482.41;;;21.75
15144;BMP180;7672;50.834;6.286;2022-08-19T02:18:05;99487.41;;;21.77
15144;BMP180;7672;50.834;6.286;2022-08-19T02:20:33;99479.69;;;21.77
15144;BMP180;7672;50.834;6.286;2022-08-19T02:23:00;99479.69;;;21.77
15144;BMP180;7672;50.834;6.286;2022-08-19T02:25:28;99480.41;;;21.81
15144;BMP180;7672;50.834;6.286;2022-08-19T02:27:54;99483.84;;;21.80
15144;BMP180;7672;50.834;6.286;2022-08-19T02:30:22;99488.03;;;21.82
15144;BMP180;7672;50.834;6.286;2022-08-19T02:32:49;99484.69;;;21.80
15144;BMP180;7672;50.834;6.286;2022-08-19T02:35:16;99484.50;;;21.85
15144;BMP180;7672;50.834;6.286;2022-08-19T02:37:44;99483.63;;;21.84
15144;BMP180;7672;50.834;6.286;2022-08-19T02:40:31;99491.25;;;21.87
15144;BMP180;7672;50.834;6.286;2022-08-19T02:43:05;99499.78;;;21.88
15144;BMP180;7672;50.834;6.286;2022-08-19T02:45:38;99493.66;;;21.90
15144;BMP180;7672;50.834;6.286;2022-08-19T02:48:08;99492.00;;;21.89
15144;BMP180;7672;50.834;6.286;2022-08-19T02:50:48;99499.59;;;21.92
15144;BMP180;7672;50.834;6.286;2022-08-19T02:53:19;99502.91;;;21.94
15144;BMP180;7672;50.834;6.286;2022-08-19T02:55:46;99496.09;;;21.93
15144;BMP180;7672;50.834;6.286;2022-08-19T02:58:15;99496.16;;;21.92
15144;BMP180;7672;50.834;6.286;2022-08-19T03:00:49;99495.13;;;21.96
15144;BMP180;7672;50.834;6.286;2022-08-19T03:03:18;99494.44;;;21.92
15144;BMP180;7672;50.834;6.286;2022-08-19T03:05:46;99493.47;;;21.95
15144;BMP180;7672;50.834;6.286;2022-08-19T03:08:24;99501.19;;;21.95
15144;BMP180;7672;50.834;6.286;2022-08-19T03:10:52;99500.34;;;21.94
15144;BMP180;7672;50.834;6.286;2022-08-19T03:13:19;99502.91;;;21.94
15144;BMP180;7672;50.834;6.286;2022-08-19T03:15:48;99496.94;;;21.94
15144;BMP180;7672;50.834;6.286;2022-08-19T03:18:16;99502.16;;;21.92
15144;BMP180;7672;50.834;6.286;2022-08-19T03:20:47;99504.66;;;21.94
15144;BMP180;7672;50.834;6.286;2022-08-19T03:23:15;99496.38;;;21.87
15144;BMP180;7672;50.834;6.286;2022-08-19T03:25:47;99502.44;;;21.86
15144;BMP180;7672;50.834;6.286;2022-08-19T03:28:33;99505.16;;;21.83
15144;BMP180;7672;50.834;6.286;2022-08-19T03:31:07;99507.72;;;21.83
15144;BMP180;7672;50.834;6.286;2022-08-19T03:33:55;99510.47;;;21.79
15144;BMP180;7672;50.834;6.286;2022-08-19T03:36:25;99505.34;;;21.79
15144;BMP180;7672;50.834;6.286;2022-08-19T03:38:59;99505.47;;;21.76
15144;BMP180;7672;50.834;6.286;2022-08-19T03:41:48;99507.34;;;21.73
15144;BMP180;7672;50.834;6.286;2022-08-19T03:44:36;99508.25;;;21.72
15144;BMP180;7672;50.834;6.286;2022-08-19T03:47:05;99503.09;;;21.72
15144;BMP180;7672;50.834;6.286;2022-08-19T03:49:33;99507.41;;;21.71
15144;BMP180;7672;50.834;6.286;2022-08-19T03:52:03;99499.78;;;21.70
15144;BMP180;7672;50.834;6.286;2022-08-19T03:54:34;99498.03;;;21.70
15144;BMP180;7672;50.834;6.286;2022-08-19T03:57:01;99494.66;;;21.68
15144;BMP180;7672;50.834;6.286;2022-08-19T03:59:33;99498.16;;;21.67
15144;BMP180;7672;50.834;6.286;2022-08-19T04:02:07;99498.22;;;21.66
15144;BMP180;7672;50.834;6.286;2022-08-19T04:04:41;99501.78;;;21.63
15144;BMP180;7672;50.834;6.286;2022-08-19T04:07:11;99509.41;;;21.65
15144;BMP180;7672;50.834;6.286;2022-08-19T04:09:41;99513.63;;;21.66
15144;BMP180;7672;50.834;6.286;2022-08-19T04:12:09;99507.75;;;21.64
15144;BMP180;7672;50.834;6.286;2022-08-19T04:14:35;99503.50;;;21.63
15144;BMP180;7672;50.834;6.286;2022-08-19T04:17:03;99507.75;;;21.64
15144;BMP180;7672;50.834;6.286;2022-08-19T04:19:35;99520.75;;;21.61
15144;BMP180;7672;50.834;6.286;2022-08-19T04:22:03;99517.22;;;21.63
15144;BMP180;7672;50.834;6.286;2022-08-19T04:24:31;99523.19;;;21.64
15144;BMP180;7672;50.834;6.286;2022-08-19T04:27:02;99518.03;;;21.64
15144;BMP180;7672;50.834;6.286;2022-08-19T04:29:29;99519.81;;;21.62
15144;BMP180;7672;50.834;6.286;2022-08-19T04:31:57;99528.31;;;21.64
15144;BMP180;7672;50.834;6.286;2022-08-19T04:34:28;99527.44;;;21.65
15144;BMP180;7672;50.834;6.286;2022-08-19T04:36:58;99531.72;;;21.64
15144;BMP180;7672;50.834;6.286;2022-08-19T04:39:29;99530.75;;;21.67
15144;BMP180;7672;50.834;6.286;2022-08-19T04:42:18;99536.94;;;21.63
15144;BMP180;7672;50.834;6.286;2022-08-19T04:45:07;99537.78;;;21.63
15144;BMP180;7672;50.834;6.286;2022-08-19T04:47:41;99538.59;;;21.64
15144;BMP180;7672;50.834;6.286;2022-08-19T04:50:24;99536.03;;;21.64
15144;BMP180;7672;50.834;6.286;2022-08-19T04:52:51;99526.50;;;21.66
15144;BMP180;7672;50.834;6.286;2022-08-19T04:55:20;99534.94;;;21.69
15144;BMP180;7672;50.834;6.286;2022-08-19T04:57:47;99543.53;;;21.68
15144;BMP180;7672;50.834;6.286;2022-08-19T05:00:14;99566.50;;;21.73
15144;BMP180;7672;50.834;6.286;2022-08-19T05:02:41;99560.34;;;21.76
15144;BMP180;7672;50.834;6.286;2022-08-19T05:05:09;99569.78;;;21.76
15144;BMP180;7672;50.834;6.286;2022-08-19T05:07:36;99572.31;;;21.77
15144;BMP180;7672;50.834;6.286;2022-08-19T05:10:05;99562.72;;;21.81
15144;BMP180;7672;50.834;6.286;2022-08-19T05:12:33;99563.41;;;21.84
15144;BMP180;7672;50.834;6.286;2022-08-19T05:15:02;99567.66;;;21.85
15144;BMP180;7672;50.834;6.286;2022-08-19T05:17:29;99570.22;;;21.85
15144;BMP180;7672;50.834;6.286;2022-08-19T05:20:08;99575.19;;;21.90
15144;BMP180;7672;50.834;6.286;2022-08-19T05:22:53;99583.59;;;21.93
15144;BMP180;7672;50.834;6.286;2022-08-19T05:25:22;99585.06;;;21.99
15144;BMP180;7672;50.834;6.286;2022-08-19T05:27:49;99580.63;;;22.02
15144;BMP180;7672;50.834;6.286;2022-08-19T05:30:17;99582.81;;;22.11
15144;BMP180;7672;50.834;6.286;2022-08-19T05:33:04;99579.91;;;22.19
15144;BMP180;7672;50.834;6.286;2022-08-19T05:35:36;99581.25;;;22.27
15144;BMP180;7672;50.834;6.286;2022-08-19T05:38:03;99582.59;;;22.36
15144;BMP180;7672;50.834;6.286;2022-08-19T05:40:30;99577.09;;;22.43
15144;BMP180;7672;50.834;6.286;2022-08-19T05:42:57;99582.78;;;22.49
15144;BMP180;7672;50.834;6.286;2022-08-19T05:45:24;99581.53;;;22.58
15144;BMP180;7672;50.834;6.286;2022-08-19T05:47:51;99569.22;;;22.64
15144;BMP180;7672;50.834;6.286;2022-08-19T05:50:18;99573.16;;;22.71
15144;BMP180;7672;50.834;6.286;2022-08-19T05:52:45;99561.72;;;22.77
15144;BMP180;7672;50.834;6.286;2022-08-19T05:55:16;99570.03;;;22.83
15144;BMP180;7672;50.834;6.286;2022-08-19T05:57:43;99563.66;;;22.90
15144;BMP180;7672;50.834;6.286;2022-08-19T06:00:11;99571.13;;;22.96
15144;BMP180;7672;50.834;6.286;2022-08-19T06:02:40;99573.41;;;23.02
15144;BMP180;7672;50.834;6.286;2022-08-19T06:05:09;99570.47;;;23.09
15144;BMP180;7672;50.834;6.286;2022-08-19T06:07:39;99570.88;;;23.19
15144;BMP180;7672;50.834;6.286;2022-08-19T06:10:09;99571.31;;;23.27
15144;BMP180;7672;50.834;6.286;2022-08-19T06:12:37;99579.38;;;23.38
15144;BMP180;7672;50.834;6.286;2022-08-19T06:15:13;99584.69;;;23.52
15144;BMP180;7672;50.834;6.286;2022-08-19T06:17:42;99580.66;;;23.63
15144;BMP180;7672;50.834;6.286;2022-08-19T06:20:14;99579.94;;;23.78
15144;BMP180;7672;50.834;6.286;2022-08-19T06:22:44;99580.13;;;23.90
15144;BMP180;7672;50.834;6.286;2022-08-19T06:25:14;99579.41;;;24.04
15144;BMP180;7672;50.834;6.286;2022-08-19T06:27:41;99586.47;;;24.17
15144;BMP180;7672;50.834;6.286;2022-08-19T06:30:29;99584.00;;;24.31
15144;BMP180;7672;50.834;6.286;2022-08-19T06:32:56;99588.44;;;24.44
15144;BMP180;7672;50.834;6.286;2022-08-19T06:35:23;99575.69;;;24.57
15144;BMP180;7672;50.834;6.286;2022-08-19T06:37:53;99581.75;;;24.71
15144;BMP180;7672;50.834;6.286;2022-08-19T06:40:21;99588.69;;;24.86
15144;BMP180;7672;50.834;6.286;2022-08-19T06:42:48;99580.41;;;24.95
15144;BMP180;7672;50.834;6.286;2022-08-19T06:45:22;99582.44;;;25.05
15144;BMP180;7672;50.834;6.286;2022-08-19T06:48:00;99591.25;;;25.17
15144;BMP180;7672;50.834;6.286;2022-08-19T06:50:27;99581.16;;;25.28
15144;BMP180;7672;50.834;6.286;2022-08-19T06:52:54;99592.44;;;25.41
15144;BMP180;7672;50.834;6.286;2022-08-19T06:55:21;99586.84;;;25.48
15144;BMP180;7672;50.834;6.286;2022-08-19T06:57:49;99591.56;;;25.55
15144;BMP180;7672;50.834;6.286;2022-08-19T07:00:20;99592.41;;;25.71
15144;BMP180;7672;50.834;6.286;2022-08-19T07:02:47;99595.56;;;25.90
15144;BMP180;7672;50.834;6.286;2022-08-19T07:05:25;99594.09;;;26.14
15144;BMP180;7672;50.834;6.286;2022-08-19T07:07:52;99599.38;;;26.40
15144;BMP180;7672;50.834;6.286;2022-08-19T07:10:23;99606.47;;;26.65
15144;BMP180;7672;50.834;6.286;2022-08-19T07:12:51;99607.25;;;26.93
15144;BMP180;7672;50.834;6.286;2022-08-19T07:15:18;99616.06;;;27.31
15144;BMP180;7672;50.834;6.286;2022-08-19T07:17:48;99616.56;;;27.62
15144;BMP180;7672;50.834;6.286;2022-08-19T07:20:20;99618.16;;;28.02
15144;BMP180;7672;50.834;6.286;2022-08-19T07:22:54;99616.94;;;28.44
15144;BMP180;7672;50.834;6.286;2022-08-19T07:25:21;99618.63;;;28.81
15144;BMP180;7672;50.834;6.286;2022-08-19T07:27:58;99617.28;;;29.11
15144;BMP180;7672;50.834;6.286;2022-08-19T07:30:27;99619.88;;;29.35
15144;BMP180;7672;50.834;6.286;2022-08-19T07:32:54;99622.69;;;29.55
15144;BMP180;7672;50.834;6.286;2022-08-19T07:35:24;99627.63;;;29.81
15144;BMP180;7672;50.834;6.286;2022-08-19T07:37:51;99622.97;;;30.30
15144;BMP180;7672;50.834;6.286;2022-08-19T07:40:21;99617.75;;;30.95
15144;BMP180;7672;50.834;6.286;2022-08-19T07:42:51;99623.06;;;31.67
15144;BMP180;7672;50.834;6.286;2022-08-19T07:45:19;99621.16;;;32.40
15144;BMP180;7672;50.834;6.286;2022-08-19T07:47:51;99631.34;;;33.21
15144;BMP180;7672;50.834;6.286;2022-08-19T07:50:20;99632.28;;;34.05
15144;BMP180;7672;50.834;6.286;2022-08-19T07:52:49;99636.97;;;34.83
15144;BMP180;7672;50.834;6.286;2022-08-19T07:55:21;99636.09;;;35.54
15144;BMP180;7672;50.834;6.286;2022-08-19T07:58:11;99630.78;;;36.14
15144;BMP180;7672;50.834;6.286;2022-08-19T08:00:39;99637.91;;;36.46
15144;BMP180;7672;50.834;6.286;2022-08-19T08:03:09;99640.44;;;36.64
15144;BMP180;7672;50.834;6.286;2022-08-19T08:05:36;99641.78;;;36.68
15144;BMP180;7672;50.834;6.286;2022-08-19T08:08:22;99630.78;;;36.72
15144;BMP180;7672;50.834;6.286;2022-08-19T08:11:19;99626.38;;;36.81
15144;BMP180;7672;50.834;6.286;2022-08-19T08:13:48;99625.75;;;36.95
15144;BMP180;7672;50.834;6.286;2022-08-19T08:16:38;99633.25;;;37.15
15144;BMP180;7672;50.834;6.286;2022-08-19T08:19:14;99635.75;;;37.32
15144;BMP180;7672;50.834;6.286;2022-08-19T08:21:57;99639.03;;;37.50
15144;BMP180;7672;50.834;6.286;2022-08-19T08:24:28;99641.38;;;37.61
15144;BMP180;7672;50.834;6.286;2022-08-19T08:26:59;99643.66;;;37.56
15144;BMP180;7672;50.834;6.286;2022-08-19T08:29:30;99648.63;;;37.35
15144;BMP180;7672;50.834;6.286;2022-08-19T08:32:01;99648.72;;;37.18
15144;BMP180;7672;50.834;6.286;2022-08-19T08:34:41;99648.50;;;36.96
15144;BMP180;7672;50.834;6.286;2022-08-19T08:37:09;99655.66;;;36.78
15144;BMP180;7672;50.834;6.286;2022-08-19T08:39:42;99650.34;;;36.62
15144;BMP180;7672;50.834;6.286;2022-08-19T08:42:30;99652.84;;;36.71
15144;BMP180;7672;50.834;6.286;2022-08-19T08:45:06;99658.56;;;37.00
15144;BMP180;7672;50.834;6.286;2022-08-19T08:47:41;99652.25;;;37.34
15144;BMP180;7672;50.834;6.286;2022-08-19T08:50:33;99648.63;;;37.83
15144;BMP180;7672;50.834;6.286;2022-08-19T08:53:05;99644.97;;;38.24
15144;BMP180;7672;50.834;6.286;2022-08-19T08:55:34;99649.47;;;38.69
15144;BMP180;7672;50.834;6.286;2022-08-19T08:58:27;99647.84;;;39.21
15144;BMP180;7672;50.834;6.286;2022-08-19T09:00:57;99650.38;;;39.67
15144;BMP180;7672;50.834;6.286;2022-08-19T09:03:27;99663.09;;;40.08
15144;BMP180;7672;50.834;6.286;2022-08-19T09:06:04;99650.78;;;40.44
15144;BMP180;7672;50.834;6.286;2022-08-19T09:11:23;99651.00;;;41.06
15144;BMP180;7672;50.834;6.286;2022-08-19T09:14:49;99646.66;;;41.41
15144;BMP180;7672;50.834;6.286;2022-08-19T09:17:25;99641.44;;;41.68
15144;BMP180;7672;50.834;6.286;2022-08-19T09:22:39;99642.50;;;41.73
15144;BMP180;7672;50.834;6.286;2022-08-19T09:25:16;99648.19;;;41.50
15144;BMP180;7672;50.834;6.286;2022-08-19T09:27:52;99653.03;;;41.25
15144;BMP180;7672;50.834;6.286;2022-08-19T09:30:25;99663.31;;;41.14
15144;BMP180;7672;50.834;6.286;2022-08-19T09:32:57;99655.22;;;41.01
15144;BMP180;7672;50.834;6.286;2022-08-19T09:35:28;99653.09;;;40.97
15144;BMP180;7672;50.834;6.286;2022-08-19T09:38:15;99655.69;;;41.04
15144;BMP180;7672;50.834;6.286;2022-08-19T09:40:43;99658.03;;;40.99
15144;BMP180;7672;50.834;6.286;2022-08-19T09:43:10;99663.28;;;40.93
15144;BMP180;7672;50.834;6.286;2022-08-19T09:45:45;99662.75;;;40.83
15144;BMP180;7672;50.834;6.286;2022-08-19T09:48:13;99658.75;;;40.73
15144;BMP180;7672;50.834;6.286;2022-08-19T09:50:44;99656.66;;;40.68
15144;BMP180;7672;50.834;6.286;2022-08-19T09:53:18;99662.13;;;40.67
15144;BMP180;7672;50.834;6.286;2022-08-19T09:55:46;99649.88;;;40.66
15144;BMP180;7672;50.834;6.286;2022-08-19T09:58:13;99657.34;;;40.62
15144;BMP180;7672;50.834;6.286;2022-08-19T10:00:40;99654.41;;;40.57
15144;BMP180;7672;50.834;6.286;2022-08-19T10:03:07;99659.56;;;40.59
15144;BMP180;7672;50.834;6.286;2022-08-19T10:05:36;99655.44;;;40.56
15144;BMP180;7672;50.834;6.286;2022-08-19T10:08:25;99656.84;;;40.67
15144;BMP180;7672;50.834;6.286;2022-08-19T10:10:54;99653.69;;;40.78
15144;BMP180;7672;50.834;6.286;2022-08-19T10:13:24;99653.22;;;40.89
15144;BMP180;7672;50.834;6.286;2022-08-19T10:16:02;99652.34;;;41.02
15144;BMP180;7672;50.834;6.286;2022-08-19T10:18:30;99648.59;;;41.26
15144;BMP180;7672;50.834;6.286;2022-08-19T10:21:16;99642.81;;;41.43
15144;BMP180;7672;50.834;6.286;2022-08-19T10:23:48;99639.78;;;41.67
15144;BMP180;7672;50.834;6.286;2022-08-19T10:26:29;99645.09;;;41.88
15144;BMP180;7672;50.834;6.286;2022-08-19T10:29:00;99634.19;;;42.04
15144;BMP180;7672;50.834;6.286;2022-08-19T10:31:32;99627.34;;;42.22
15144;BMP180;7672;50.834;6.286;2022-08-19T10:34:20;99624.41;;;42.44
15144;BMP180;7672;50.834;6.286;2022-08-19T10:36:55;99620.28;;;42.69
15144;BMP180;7672;50.834;6.286;2022-08-19T10:39:33;99627.72;;;42.93
15144;BMP180;7672;50.834;6.286;2022-08-19T10:42:12;99623.91;;;43.08
15144;BMP180;7672;50.834;6.286;2022-08-19T10:44:43;99623.31;;;43.19
15144;BMP180;7672;50.834;6.286;2022-08-19T10:47:17;99620.88;;;43.31
15144;BMP180;7672;50.834;6.286;2022-08-19T10:49:55;99628.84;;;43.37
15144;BMP180;7672;50.834;6.286;2022-08-19T10:52:48;99631.75;;;43.42
15144;BMP180;7672;50.834;6.286;2022-08-19T10:55:22;99632.34;;;43.44
15144;BMP180;7672;50.834;6.286;2022-08-19T10:58:13;99629.91;;;43.49
15144;BMP180;7672;50.834;6.286;2022-08-19T11:00:57;99622.13;;;43.60
15144;BMP180;7672;50.834;6.286;2022-08-19T11:03:26;99624.22;;;43.78
15144;BMP180;7672;50.834;6.286;2022-08-19T11:06:05;99631.97;;;43.86
15144;BMP180;7672;50.834;6.286;2022-08-19T11:08:34;99616.00;;;43.66
15144;BMP180;7672;50.834;6.286;2022-08-19T11:11:04;99614.72;;;43.37
15144;BMP180;7672;50.834;6.286;2022-08-19T11:13:36;99617.16;;;43.25
15144;BMP180;7672;50.834;6.286;2022-08-19T11:16:16;99614.31;;;43.27
15144;BMP180;7672;50.834;6.286;2022-08-19T11:18:53;99612.94;;;43.44
15144;BMP180;7672;50.834;6.286;2022-08-19T11:21:34;99622.53;;;43.70
15144;BMP180;7672;50.834;6.286;2022-08-19T11:24:13;99618.25;;;43.95
15144;BMP180;7672;50.834;6.286;2022-08-19T11:26:45;99632.16;;;44.23
15144;BMP180;7672;50.834;6.286;2022-08-19T11:29:13;99618.16;;;44.34
15144;BMP180;7672;50.834;6.286;2022-08-19T11:31:45;99615.16;;;44.24
15144;BMP180;7672;50.834;6.286;2022-08-19T11:34:19;99608.19;;;43.97
15144;BMP180;7672;50.834;6.286;2022-08-19T11:36:50;99608.81;;;43.73
15144;BMP180;7672;50.834;6.286;2022-08-19T11:39:22;99616.00;;;43.66
15144;BMP180;7672;50.834;6.286;2022-08-19T11:41:54;99610.66;;;43.66
15144;BMP180;7672;50.834;6.286;2022-08-19T11:44:22;99612.91;;;43.63
15144;BMP180;7672;50.834;6.286;2022-08-19T11:46:51;99596.13;;;43.56
15144;BMP180;7672;50.834;6.286;2022-08-19T11:49:19;99590.19;;;43.54
15144;BMP180;7672;50.834;6.286;2022-08-19T11:51:48;99593.47;;;43.50
15144;BMP180;7672;50.834;6.286;2022-08-19T11:54:19;99599.63;;;43.44
15144;BMP180;7672;50.834;6.286;2022-08-19T11:56:49;99593.63;;;43.29
15144;BMP180;7672;50.834;6.286;2022-08-19T11:59:16;99598.94;;;43.09
15144;BMP180;7672;50.834;6.286;2022-08-19T12:01:43;99599.03;;;42.82
15144;BMP180;7672;50.834;6.286;2022-08-19T12:04:13;99592.94;;;42.41
15144;BMP180;7672;50.834;6.286;2022-08-19T12:06:41;99589.06;;;42.10
15144;BMP180;7672;50.834;6.286;2022-08-19T12:09:10;99596.59;;;41.79
15144;BMP180;7672;50.834;6.286;2022-08-19T12:11:43;99592.13;;;41.53
15144;BMP180;7672;50.834;6.286;2022-08-19T12:14:13;99601.44;;;41.28
15144;BMP180;7672;50.834;6.286;2022-08-19T12:16:45;99599.34;;;41.02
15144;BMP180;7672;50.834;6.286;2022-08-19T12:19:17;99597.88;;;40.79
15144;BMP180;7672;50.834;6.286;2022-08-19T12:21:49;99598.44;;;40.60
15144;BMP180;7672;50.834;6.286;2022-08-19T12:24:16;99592.78;;;40.49
15144;BMP180;7672;50.834;6.286;2022-08-19T12:26:50;99592.44;;;40.37
15144;BMP180;7672;50.834;6.286;2022-08-19T12:29:20;99580.84;;;40.24
15144;BMP180;7672;50.834;6.286;2022-08-19T12:31:50;99583.66;;;40.08
15144;BMP180;7672;50.834;6.286;2022-08-19T12:34:17;99585.00;;;39.90
15144;BMP180;7672;50.834;6.286;2022-08-19T12:36:46;99577.75;;;39.69
15144;BMP180;7672;50.834;6.286;2022-08-19T12:39:18;99577.59;;;39.49
15144;BMP180;7672;50.834;6.286;2022-08-19T12:41:45;99569.03;;;39.24
15144;BMP180;7672;50.834;6.286;2022-08-19T12:44:22;99567.03;;;39.04
15144;BMP180;7672;50.834;6.286;2022-08-19T12:46:58;99569.78;;;38.88
15144;BMP180;7672;50.834;6.286;2022-08-19T12:49:29;99574.97;;;38.74
15144;BMP180;7672;50.834;6.286;2022-08-19T12:52:15;99565.31;;;38.58
15144;BMP180;7672;50.834;6.286;2022-08-19T12:54:49;99569.59;;;38.51
15144;BMP180;7672;50.834;6.286;2022-08-19T12:57:26;99571.78;;;38.48
15144;BMP180;7672;50.834;6.286;2022-08-19T13:00:05;99568.00;;;38.42
15144;BMP180;7672;50.834;6.286;2022-08-19T13:02:37;99568.53;;;38.38
15144;BMP180;7672;50.834;6.286;2022-08-19T13:05:07;99575.97;;;38.35
15144;BMP180;7672;50.834;6.286;2022-08-19T13:07:36;99565.44;;;38.27
15144;BMP180;7672;50.834;6.286;2022-08-19T13:10:13;99567.59;;;38.23
15144;BMP180;7672;50.834;6.286;2022-08-19T13:12:44;99564.16;;;38.15
15144;BMP180;7672;50.834;6.286;2022-08-19T13:15:11;99559.84;;;38.06
15144;BMP180;7672;50.834;6.286;2022-08-19T13:17:41;99555.41;;;37.98
15144;BMP180;7672;50.834;6.286;2022-08-19T13:20:10;99557.59;;;37.95
15144;BMP180;7672;50.834;6.286;2022-08-19T13:22:38;99565.38;;;37.88
15144;BMP180;7672;50.834;6.286;2022-08-19T13:25:07;99563.22;;;37.84
15144;BMP180;7672;50.834;6.286;2022-08-19T13:27:35;99560.75;;;37.82
15144;BMP180;7672;50.834;6.286;2022-08-19T13:30:05;99555.00;;;37.79
15144;BMP180;7672;50.834;6.286;2022-08-19T13:32:51;99553.69;;;37.67
15144;BMP180;7672;50.834;6.286;2022-08-19T13:35:39;99566.56;;;37.54
15144;BMP180;7672;50.834;6.286;2022-08-19T13:38:07;99557.00;;;37.37
15144;BMP180;7672;50.834;6.286;2022-08-19T13:40:39;99564.88;;;37.21
15144;BMP180;7672;50.834;6.286;2022-08-19T13:43:08;99564.34;;;37.02
15144;BMP180;7672;50.834;6.286;2022-08-19T13:45:53;99557.69;;;36.74
15144;BMP180;7672;50.834;6.286;2022-08-19T13:48:24;99548.41;;;36.46
15144;BMP180;7672;50.834;6.286;2022-08-19T13:50:53;99548.13;;;36.24
15144;BMP180;7672;50.834;6.286;2022-08-19T13:53:20;99554.59;;;36.04
15144;BMP180;7672;50.834;6.286;2022-08-19T13:55:47;99544.13;;;35.87
15144;BMP180;7672;50.834;6.286;2022-08-19T13:58:16;99550.47;;;35.77
15144;BMP180;7672;50.834;6.286;2022-08-19T14:00:45;99545.19;;;35.69
15144;BMP180;7672;50.834;6.286;2022-08-19T14:03:13;99544.97;;;35.62
15144;BMP180;7672;50.834;6.286;2022-08-19T14:05:40;99553.16;;;35.59
15144;BMP180;7672;50.834;6.286;2022-08-19T14:08:09;99552.13;;;35.52
15144;BMP180;7672;50.834;6.286;2022-08-19T14:10:36;99553.84;;;35.44
15144;BMP180;7672;50.834;6.286;2022-08-19T14:13:04;99555.72;;;35.34
15144;BMP180;7672;50.834;6.286;2022-08-19T14:15:34;99546.28;;;35.23
15144;BMP180;7672;50.834;6.286;2022-08-19T14:18:01;99542.91;;;35.14
15144;BMP180;7672;50.834;6.286;2022-08-19T14:20:28;99549.59;;;35.08
15144;BMP180;7672;50.834;6.286;2022-08-19T14:22:55;99539.31;;;34.97
15144;BMP180;7672;50.834;6.286;2022-08-19T14:25:27;99546.28;;;34.89
15144;BMP180;7672;50.834;6.286;2022-08-19T14:27:56;99542.72;;;34.80
15144;BMP180;7672;50.834;6.286;2022-08-19T14:30:31;99549.31;;;34.84
15144;BMP180;7672;50.834;6.286;2022-08-19T14:33:02;99538.16;;;34.65
15144;BMP180;7672;50.834;6.286;2022-08-19T14:35:31;99537.53;;;34.53
15144;BMP180;7672;50.834;6.286;2022-08-19T14:38:06;99532.44;;;34.43
15144;BMP180;7672;50.834;6.286;2022-08-19T14:40:40;99530.13;;;34.40
15144;BMP180;7672;50.834;6.286;2022-08-19T14:43:08;99532.75;;;34.40
15144;BMP180;7672;50.834;6.286;2022-08-19T14:45:38;99533.56;;;34.40
15144;BMP180;7672;50.834;6.286;2022-08-19T14:48:08;99528.16;;;34.42
15144;BMP180;7672;50.834;6.286;2022-08-19T14:50:45;99532.97;;;34.46
15144;BMP180;7672;50.834;6.286;2022-08-19T14:53:12;99538.22;;;34.46
15144;BMP180;7672;50.834;6.286;2022-08-19T14:55:44;99533.13;;;34.45